createdAt,value
2022-12-18T00:01:17.944Z,2.10
2022-12-18T00:03:46.196Z,0.93
2022-12-18T00:06:14.659Z,1.67
2022-12-18T00:08:43.594Z,1.08
2022-12-18T00:11:14.106Z,1.25
2022-12-18T00:13:42.297Z,1.10
2022-12-18T00:16:12.526Z,1.20
2022-12-18T00:18:40.942Z,1.55
2022-12-18T00:21:11.636Z,1.83
2022-12-18T00:23:41.329Z,2.05
2022-12-18T00:26:13.405Z,1.35
2022-12-18T00:28:40.841Z,1.67
2022-12-18T00:31:11.635Z,0.82
2022-12-18T00:33:39.726Z,1.55
2022-12-18T00:36:09.703Z,1.02
2022-12-18T00:38:37.423Z,1.83
2022-12-18T00:41:05.456Z,1.00
2022-12-18T00:43:34.344Z,1.08
2022-12-18T00:46:01.811Z,1.48
2022-12-18T00:48:29.337Z,1.42
2022-12-18T00:50:56.886Z,1.77
2022-12-18T00:53:24.376Z,1.07
2022-12-18T00:55:51.861Z,1.75
2022-12-18T00:58:19.546Z,0.60
2022-12-18T01:00:48.342Z,0.75
2022-12-18T01:03:16.331Z,1.50
2022-12-18T01:05:44.007Z,0.83
2022-12-18T01:08:11.548Z,2.08
2022-12-18T01:10:41.880Z,1.50
2022-12-18T01:13:09.363Z,1.10
2022-12-18T01:15:37.544Z,1.38
2022-12-18T01:18:06.350Z,1.93
2022-12-18T01:20:34.153Z,1.70
2022-12-18T01:23:01.623Z,1.75
2022-12-18T01:25:29.082Z,1.17
2022-12-18T01:27:56.518Z,1.27
2022-12-18T01:30:23.933Z,1.40
2022-12-18T01:32:51.372Z,2.28
2022-12-18T01:35:20.179Z,0.90
2022-12-18T01:37:47.866Z,1.75
2022-12-18T01:40:15.314Z,1.38
2022-12-18T01:42:42.738Z,1.80
2022-12-18T01:45:29.175Z,1.95
2022-12-18T01:47:59.498Z,1.88
2022-12-18T01:50:32.686Z,1.60
2022-12-18T01:53:03.983Z,2.10
2022-12-18T01:55:37.078Z,1.60
2022-12-18T01:58:05.614Z,2.03
2022-12-18T02:00:33.438Z,1.45
2022-12-18T02:03:01.643Z,1.60
2022-12-18T02:05:42.752Z,1.95
2022-12-18T02:08:14.902Z,1.63
2022-12-18T02:10:50.093Z,1.65
2022-12-18T02:13:26.097Z,2.15
2022-12-18T02:16:01.835Z,1.63
2022-12-18T02:18:34.565Z,1.10
2022-12-18T02:21:10.387Z,2.67
2022-12-18T02:23:51.602Z,1.65
2022-12-18T02:26:25.969Z,2.05
2022-12-18T02:28:56.527Z,2.65
2022-12-18T02:31:27.648Z,1.92
2022-12-18T02:33:58.284Z,2.07
2022-12-18T02:36:27.401Z,1.65
2022-12-18T02:38:56.649Z,1.73
2022-12-18T02:41:26.229Z,1.55
2022-12-18T02:43:58.233Z,2.45
2022-12-18T02:46:32.014Z,1.17
2022-12-18T02:49:10.876Z,0.98
2022-12-18T02:51:49.984Z,2.58
2022-12-18T02:54:29.370Z,2.50
2022-12-18T02:57:00.210Z,1.42
2022-12-18T02:59:33.823Z,1.10
2022-12-18T03:02:08.149Z,1.65
2022-12-18T03:04:44.602Z,2.55
2022-12-18T03:07:17.821Z,2.35
2022-12-18T03:09:51.163Z,2.08
2022-12-18T03:12:24.809Z,1.87
2022-12-18T03:14:56.402Z,2.25
2022-12-18T03:17:27.431Z,2.40
2022-12-18T03:19:58.504Z,2.83
2022-12-18T03:22:31.166Z,2.20
2022-12-18T03:25:00.155Z,2.23
2022-12-18T03:27:32.102Z,2.80
2022-12-18T03:30:08.211Z,3.58
2022-12-18T03:32:43.109Z,2.00
2022-12-18T03:35:13.824Z,1.60
2022-12-18T03:37:41.265Z,2.07
2022-12-18T03:40:09.732Z,1.73
2022-12-18T03:42:48.823Z,1.83
2022-12-18T03:45:24.019Z,2.40
2022-12-18T03:48:00.545Z,2.72
2022-12-18T03:50:43.861Z,2.40
2022-12-18T03:53:24.878Z,2.35
2022-12-18T03:55:53.647Z,2.40
2022-12-18T03:58:26.381Z,2.65
2022-12-18T04:00:57.851Z,2.15
2022-12-18T04:03:27.356Z,2.10
2022-12-18T04:05:57.201Z,4.30
2022-12-18T04:08:26.509Z,10.23
2022-12-18T04:10:53.998Z,5.55
2022-12-18T04:13:26.726Z,2.60
2022-12-18T04:15:54.347Z,1.70
2022-12-18T04:18:21.943Z,1.58
2022-12-18T04:20:49.361Z,2.08
2022-12-18T04:23:16.802Z,3.33
2022-12-18T04:25:44.297Z,3.78
2022-12-18T04:28:11.700Z,4.23
2022-12-18T04:30:40.556Z,2.75
2022-12-18T04:33:11.571Z,6.30
2022-12-18T04:35:39.066Z,5.80
2022-12-18T04:38:07.522Z,2.97
2022-12-18T04:40:34.958Z,1.53
2022-12-18T04:43:02.482Z,2.00
2022-12-18T04:45:30.014Z,2.08
2022-12-18T04:48:00.188Z,2.80
2022-12-18T04:50:27.831Z,9.50
2022-12-18T04:52:55.257Z,7.00
2022-12-18T04:55:28.211Z,3.20
2022-12-18T04:57:55.804Z,5.50
2022-12-18T05:00:23.687Z,9.43
2022-12-18T05:02:51.259Z,5.10
2022-12-18T05:05:20.157Z,3.40
2022-12-18T05:07:47.598Z,2.13
2022-12-18T05:10:15.030Z,2.42
2022-12-18T05:12:56.405Z,2.42
2022-12-18T05:15:23.828Z,2.40
2022-12-18T05:17:51.283Z,1.27
2022-12-18T05:20:20.482Z,2.25
2022-12-18T05:22:47.892Z,1.27
2022-12-18T05:25:15.921Z,1.92
2022-12-18T05:27:43.482Z,2.20
2022-12-18T05:30:11.747Z,2.37
2022-12-18T05:32:39.744Z,2.00
2022-12-18T05:35:09.930Z,2.63
2022-12-18T05:37:42.969Z,2.38
2022-12-18T05:40:12.615Z,2.00
2022-12-18T05:42:40.186Z,1.53
2022-12-18T05:45:08.476Z,2.10
2022-12-18T05:47:35.920Z,1.80
2022-12-18T05:50:03.351Z,2.58
2022-12-18T05:52:30.788Z,1.80
2022-12-18T05:55:00.275Z,2.00
2022-12-18T05:57:27.721Z,2.30
2022-12-18T05:59:55.235Z,2.38
2022-12-18T06:02:22.874Z,3.03
2022-12-18T06:04:50.405Z,2.55
2022-12-18T06:07:18.366Z,2.80
2022-12-18T06:09:45.777Z,2.05
2022-12-18T06:12:14.568Z,3.30
2022-12-18T06:14:41.968Z,1.83
2022-12-18T06:17:09.391Z,1.65
2022-12-18T06:19:37.038Z,2.50
2022-12-18T06:22:04.545Z,1.73
2022-12-18T06:24:32.028Z,1.80
2022-12-18T06:26:59.746Z,2.13
2022-12-18T06:29:28.508Z,1.73
2022-12-18T06:31:56.014Z,1.50
2022-12-18T06:34:23.468Z,2.55
2022-12-18T06:36:50.886Z,1.35
2022-12-18T06:39:18.367Z,1.83
2022-12-18T06:41:45.825Z,2.15
2022-12-18T06:44:13.277Z,2.10
2022-12-18T06:46:42.474Z,1.75
2022-12-18T06:49:10.657Z,2.47
2022-12-18T06:51:38.112Z,1.40
2022-12-18T06:54:05.705Z,2.22
2022-12-18T06:56:33.156Z,2.03
2022-12-18T06:59:00.611Z,1.98
2022-12-18T07:01:28.434Z,2.30
2022-12-18T07:03:58.793Z,1.55
2022-12-18T07:06:27.885Z,1.67
2022-12-18T07:08:56.168Z,2.07
2022-12-18T07:11:23.817Z,1.70
2022-12-18T07:13:51.333Z,3.15
2022-12-18T07:16:24.753Z,4.88
2022-12-18T07:18:53.081Z,2.83
2022-12-18T07:21:23.243Z,2.40
2022-12-18T07:23:50.882Z,2.58
2022-12-18T07:26:20.541Z,4.30
2022-12-18T07:28:48.510Z,3.35
2022-12-18T07:31:18.171Z,4.88
2022-12-18T07:33:46.373Z,4.10
2022-12-18T07:36:14.110Z,3.92
2022-12-18T07:38:43.083Z,2.85
2022-12-18T07:41:13.122Z,6.80
2022-12-18T07:43:42.039Z,7.75
2022-12-18T07:46:10.950Z,3.40
2022-12-18T07:48:40.565Z,6.20
2022-12-18T07:51:09.193Z,3.97
2022-12-18T07:53:38.201Z,3.75
2022-12-18T07:58:58.246Z,3.87
2022-12-18T08:01:26.255Z,5.18
2022-12-18T08:03:53.836Z,3.53
2022-12-18T08:06:23.342Z,3.92
2022-12-18T08:08:53.215Z,3.33
2022-12-18T08:11:22.025Z,4.97
2022-12-18T08:13:49.528Z,3.88
2022-12-18T08:16:17.338Z,3.28
2022-12-18T08:18:44.817Z,4.15
2022-12-18T08:21:13.790Z,3.13
2022-12-18T08:23:43.330Z,3.97
2022-12-18T08:26:11.601Z,3.10
2022-12-18T08:28:40.788Z,2.55
2022-12-18T08:31:09.170Z,2.95
2022-12-18T08:33:39.052Z,3.60
2022-12-18T08:36:07.626Z,4.10
2022-12-18T08:38:35.044Z,2.85
2022-12-18T08:41:03.305Z,4.10
2022-12-18T08:43:48.706Z,4.03
2022-12-18T08:46:18.091Z,2.17
2022-12-18T08:48:46.000Z,3.03
2022-12-18T08:51:13.753Z,2.42
2022-12-18T08:53:41.721Z,2.70
2022-12-18T08:56:09.790Z,2.53
2022-12-18T08:58:37.248Z,2.53
2022-12-18T09:01:06.130Z,3.50
2022-12-18T09:03:35.273Z,3.25
2022-12-18T09:06:02.761Z,2.40
2022-12-18T09:08:30.823Z,3.65
2022-12-18T09:10:58.610Z,6.00
2022-12-18T09:13:26.080Z,3.73
2022-12-18T09:15:56.080Z,5.93
2022-12-18T09:18:25.240Z,4.72
2022-12-18T09:20:54.252Z,4.50
2022-12-18T09:23:22.303Z,2.97
2022-12-18T09:25:50.254Z,3.03
2022-12-18T09:28:20.264Z,3.20
2022-12-18T09:30:49.980Z,2.85
2022-12-18T09:33:17.781Z,3.10
2022-12-18T09:35:47.053Z,4.38
2022-12-18T09:38:18.727Z,4.10
2022-12-18T09:40:48.209Z,3.92
2022-12-18T09:43:18.999Z,4.20
2022-12-18T09:45:51.533Z,3.20
2022-12-18T09:48:25.408Z,3.97
2022-12-18T09:50:55.805Z,4.17
2022-12-18T09:53:30.033Z,3.40
2022-12-18T09:55:58.990Z,3.55
2022-12-18T09:58:32.389Z,3.05
2022-12-18T10:00:59.838Z,3.35
2022-12-18T10:03:27.626Z,4.13
2022-12-18T10:06:04.390Z,2.75
2022-12-18T10:08:44.148Z,3.20
2022-12-18T10:11:27.075Z,2.28
2022-12-18T10:13:58.771Z,2.95
2022-12-18T10:16:37.654Z,3.53
2022-12-18T10:19:21.858Z,3.92
2022-12-18T10:21:56.998Z,3.15
2022-12-18T10:24:35.202Z,3.58
2022-12-18T10:27:14.541Z,2.80
2022-12-18T10:29:43.149Z,3.00
2022-12-18T10:32:17.126Z,4.18
2022-12-18T10:34:47.616Z,4.22
2022-12-18T10:37:19.476Z,4.13
2022-12-18T10:40:06.301Z,3.78
2022-12-18T10:42:33.793Z,4.50
2022-12-18T10:45:03.831Z,4.28
2022-12-18T10:47:31.423Z,4.47
2022-12-18T10:49:58.965Z,2.78
2022-12-18T10:52:28.059Z,4.18
2022-12-18T10:55:00.035Z,4.07
2022-12-18T10:57:34.105Z,2.33
2022-12-18T11:00:22.022Z,3.25
2022-12-18T11:02:50.009Z,3.22
2022-12-18T11:05:33.774Z,4.03
2022-12-18T11:08:02.621Z,4.17
2022-12-18T11:10:34.317Z,3.83
2022-12-18T11:13:13.643Z,4.43
2022-12-18T11:15:42.946Z,4.13
2022-12-18T11:18:19.656Z,3.88
2022-12-18T11:20:58.360Z,4.07
2022-12-18T11:23:27.012Z,4.82
2022-12-18T11:26:04.759Z,4.05
2022-12-18T11:28:41.883Z,4.03
2022-12-18T11:31:23.423Z,4.35
2022-12-18T11:36:49.987Z,3.30
2022-12-18T11:39:20.914Z,3.22
2022-12-18T11:42:12.329Z,4.25
2022-12-18T11:44:51.868Z,3.97
2022-12-18T11:47:29.239Z,5.30
2022-12-18T11:49:57.863Z,4.28
2022-12-18T11:52:29.077Z,5.28
2022-12-18T11:55:00.588Z,4.47
2022-12-18T11:57:40.158Z,3.75
2022-12-18T12:00:17.084Z,4.30
2022-12-18T12:03:24.349Z,4.07
2022-12-18T12:06:06.399Z,2.30
2022-12-18T12:08:46.137Z,4.63
2022-12-18T12:11:24.535Z,5.43
2022-12-18T12:14:03.658Z,3.63
2022-12-18T12:16:37.134Z,3.10
2022-12-18T12:19:20.390Z,2.70
2022-12-18T12:21:55.770Z,3.85
2022-12-18T12:24:39.138Z,3.95
2022-12-18T12:27:15.932Z,2.70
2022-12-18T12:30:00.797Z,2.47
2022-12-18T12:32:44.420Z,4.78
2022-12-18T12:35:23.774Z,3.08
2022-12-18T12:38:01.924Z,3.40
2022-12-18T12:43:28.116Z,3.88
2022-12-18T12:46:02.828Z,2.90
2022-12-18T12:48:40.193Z,3.95
2022-12-18T12:51:14.798Z,4.15
2022-12-18T12:53:43.486Z,4.93
2022-12-18T12:56:16.407Z,2.45
2022-12-18T12:58:53.916Z,3.85
2022-12-18T13:01:31.592Z,4.10
2022-12-18T13:04:10.756Z,2.88
2022-12-18T13:06:45.299Z,4.13
2022-12-18T13:09:13.879Z,2.75
2022-12-18T13:12:00.451Z,3.08
2022-12-18T13:14:32.247Z,4.32
2022-12-18T13:17:31.754Z,3.03
2022-12-18T13:20:08.945Z,4.10
2022-12-18T13:22:38.614Z,3.45
2022-12-18T13:25:31.864Z,3.38
2022-12-18T13:28:05.857Z,2.88
2022-12-18T13:30:46.238Z,3.22
2022-12-18T13:34:02.030Z,4.33
2022-12-18T13:36:33.657Z,3.53
2022-12-18T13:39:35.270Z,4.35
2022-12-18T13:42:58.994Z,2.38
2022-12-18T13:45:47.921Z,2.75
2022-12-18T13:48:21.140Z,4.03
2022-12-18T13:50:55.578Z,3.60
2022-12-18T13:53:28.399Z,4.32
2022-12-18T13:55:56.629Z,3.22
2022-12-18T13:58:24.143Z,4.35
2022-12-18T14:00:51.645Z,3.13
2022-12-18T14:03:23.294Z,3.20
2022-12-18T14:05:58.325Z,3.38
2022-12-18T14:08:29.188Z,3.42
2022-12-18T14:10:57.258Z,2.50
2022-12-18T14:13:29.957Z,2.40
2022-12-18T14:15:58.517Z,3.88
2022-12-18T14:18:38.460Z,3.65
2022-12-18T14:21:08.725Z,4.20
2022-12-18T14:23:39.007Z,3.40
2022-12-18T14:26:24.023Z,3.90
2022-12-18T14:28:51.805Z,4.45
2022-12-18T14:31:20.818Z,3.17
2022-12-18T14:33:48.667Z,3.40
2022-12-18T14:36:20.337Z,3.55
2022-12-18T14:38:51.609Z,3.00
2022-12-18T14:41:20.910Z,3.17
2022-12-18T14:43:49.772Z,4.00
2022-12-18T14:46:30.957Z,3.25
2022-12-18T14:48:58.934Z,4.13
2022-12-18T14:51:29.024Z,4.43
2022-12-18T14:53:58.471Z,3.15
2022-12-18T14:56:28.308Z,4.80
2022-12-18T14:58:58.483Z,4.45
2022-12-18T15:01:29.106Z,3.33
2022-12-18T15:03:58.583Z,5.03
2022-12-18T15:06:34.365Z,3.92
2022-12-18T15:09:05.202Z,5.03
2022-12-18T15:11:45.201Z,3.47
2022-12-18T15:14:33.788Z,4.30
2022-12-18T15:17:03.971Z,4.23
2022-12-18T15:19:37.705Z,3.92
2022-12-18T15:22:07.011Z,3.67
2022-12-18T15:24:35.193Z,3.45
2022-12-18T15:27:02.827Z,3.95
2022-12-18T15:29:30.240Z,4.07
2022-12-18T15:32:03.306Z,4.60
2022-12-18T15:34:31.504Z,5.03
2022-12-18T15:36:58.937Z,3.65
2022-12-18T15:39:27.689Z,4.97
2022-12-18T15:42:12.934Z,4.27
2022-12-18T15:44:40.586Z,5.32
2022-12-18T15:47:13.793Z,5.03
2022-12-18T15:49:41.371Z,4.38
2022-12-18T15:52:14.142Z,4.55
2022-12-18T15:55:00.325Z,5.53
2022-12-18T15:57:27.829Z,4.28
2022-12-18T15:59:58.765Z,5.88
2022-12-18T16:02:27.068Z,5.20
2022-12-18T16:04:55.307Z,5.45
2022-12-18T16:07:25.064Z,4.37
2022-12-18T16:09:55.150Z,5.50
2022-12-18T16:12:26.168Z,5.15
2022-12-18T16:14:53.629Z,4.38
2022-12-18T16:17:21.101Z,5.95
2022-12-18T16:19:48.529Z,6.37
2022-12-18T16:22:22.802Z,5.95
2022-12-18T16:24:50.962Z,5.97
2022-12-18T16:27:20.029Z,6.75
2022-12-18T16:29:47.831Z,6.05
2022-12-18T16:32:17.688Z,4.87
2022-12-18T16:34:45.986Z,5.63
2022-12-18T16:37:15.609Z,5.60
2022-12-18T16:39:43.686Z,6.43
2022-12-18T16:42:17.030Z,6.28
2022-12-18T16:44:47.184Z,7.77
2022-12-18T16:47:15.627Z,8.45
2022-12-18T16:49:43.222Z,7.18
2022-12-18T16:52:10.709Z,6.55
2022-12-18T16:54:38.425Z,5.80
2022-12-18T16:57:06.181Z,5.87
2022-12-18T16:59:33.874Z,5.57
2022-12-18T17:02:03.114Z,5.88
2022-12-18T17:04:30.689Z,6.32
2022-12-18T17:06:58.151Z,7.05
2022-12-18T17:09:26.075Z,6.83
2022-12-18T17:11:54.424Z,6.53
2022-12-18T17:14:23.629Z,7.25
2022-12-18T17:17:07.372Z,6.18
2022-12-18T17:19:40.165Z,7.32
2022-12-18T17:22:08.011Z,7.80
2022-12-18T17:24:35.749Z,7.72
2022-12-18T17:27:03.665Z,6.28
2022-12-18T17:29:31.294Z,8.07
2022-12-18T17:32:01.354Z,8.63
2022-12-18T17:34:28.998Z,7.40
2022-12-18T17:36:58.848Z,7.93
2022-12-18T17:39:26.358Z,6.13
2022-12-18T17:41:53.917Z,8.40
2022-12-18T17:44:21.630Z,6.80
2022-12-18T17:46:49.348Z,7.70
2022-12-18T17:49:17.220Z,5.82
2022-12-18T17:51:44.773Z,8.80
2022-12-18T17:54:14.079Z,6.60
2022-12-18T17:56:41.755Z,8.40
2022-12-18T17:59:09.534Z,7.80
2022-12-18T18:01:43.781Z,9.60
2022-12-18T18:04:12.143Z,6.30
2022-12-18T18:06:39.998Z,9.80
2022-12-18T18:09:09.234Z,7.65
2022-12-18T18:12:03.263Z,7.57
2022-12-18T18:14:31.099Z,6.50
2022-12-18T18:16:59.852Z,6.85
2022-12-18T18:19:33.950Z,7.50
2022-12-18T18:22:03.126Z,6.75
2022-12-18T18:24:31.742Z,7.50
2022-12-18T18:27:00.881Z,6.57
2022-12-18T18:29:31.165Z,7.80
2022-12-18T18:31:59.411Z,9.32
2022-12-18T18:34:29.600Z,8.32
2022-12-18T18:36:57.077Z,7.90
2022-12-18T18:39:24.942Z,7.85
2022-12-18T18:41:52.654Z,6.15
2022-12-18T18:44:29.295Z,7.15
2022-12-18T18:46:58.249Z,4.68
2022-12-18T18:49:27.406Z,7.77
2022-12-18T18:51:56.625Z,6.85
2022-12-18T18:54:24.583Z,8.23
2022-12-18T18:59:41.593Z,8.15
2022-12-18T19:02:11.661Z,9.70
2022-12-18T19:04:43.100Z,7.80
2022-12-18T19:07:15.041Z,7.88
2022-12-18T19:09:55.697Z,8.68
2022-12-18T19:12:40.923Z,6.78
2022-12-18T19:15:10.665Z,7.57
2022-12-18T19:17:41.558Z,7.35
2022-12-18T19:20:12.524Z,6.30
2022-12-18T19:22:40.026Z,6.88
2022-12-18T19:25:09.263Z,8.05
2022-12-18T19:27:39.926Z,6.90
2022-12-18T19:30:08.810Z,6.82
2022-12-18T19:32:37.966Z,7.30
2022-12-18T19:35:06.223Z,7.10
2022-12-18T19:37:35.825Z,6.55
2022-12-18T19:40:06.081Z,7.50
2022-12-18T19:42:42.724Z,8.05
2022-12-18T19:45:11.276Z,7.25
2022-12-18T19:47:43.131Z,6.60
2022-12-18T19:50:11.404Z,6.95
2022-12-18T19:52:39.059Z,6.93
2022-12-18T19:55:07.091Z,6.40
2022-12-18T19:57:34.842Z,5.90
2022-12-18T20:00:02.541Z,6.60
2022-12-18T20:02:31.053Z,6.97
2022-12-18T20:05:00.264Z,6.57
2022-12-18T20:07:27.843Z,6.38
2022-12-18T20:10:01.371Z,6.95
2022-12-18T20:12:33.215Z,6.43
2022-12-18T20:15:02.144Z,6.30
2022-12-18T20:17:33.956Z,6.83
2022-12-18T20:20:02.964Z,6.55
2022-12-18T20:22:30.592Z,4.95
2022-12-18T20:24:58.271Z,6.80
2022-12-18T20:27:26.063Z,7.10
2022-12-18T20:29:53.631Z,7.93
2022-12-18T20:32:23.560Z,4.55
2022-12-18T20:34:51.316Z,7.45
2022-12-18T20:37:20.950Z,6.53
2022-12-18T20:39:49.004Z,7.40
2022-12-18T20:42:17.160Z,8.93
2022-12-18T20:44:45.650Z,7.07
2022-12-18T20:47:13.394Z,4.55
2022-12-18T20:49:44.473Z,7.80
2022-12-18T20:52:13.326Z,7.07
2022-12-18T20:54:42.260Z,9.20
2022-12-18T20:57:09.843Z,7.43
2022-12-18T20:59:37.516Z,6.35
2022-12-18T21:02:05.300Z,6.03
2022-12-18T21:04:33.116Z,6.72
2022-12-18T21:07:02.989Z,6.47
2022-12-18T21:09:35.934Z,7.40
2022-12-18T21:12:29.533Z,7.03
2022-12-18T21:15:01.589Z,7.00
2022-12-18T21:17:29.548Z,6.40
2022-12-18T21:19:59.322Z,6.37
2022-12-18T21:22:27.257Z,7.28
2022-12-18T21:24:54.966Z,6.88
2022-12-18T21:27:23.846Z,6.55
2022-12-18T21:29:52.245Z,6.93
2022-12-18T21:32:20.296Z,8.97
2022-12-18T21:34:48.580Z,5.88
2022-12-18T21:37:16.326Z,6.55
2022-12-18T21:39:43.784Z,6.10
2022-12-18T21:42:30.481Z,8.48
2022-12-18T21:44:59.463Z,7.00
2022-12-18T21:47:26.962Z,7.13
2022-12-18T21:49:54.915Z,6.32
2022-12-18T21:52:28.616Z,6.32
2022-12-18T21:55:06.571Z,9.50
2022-12-18T21:57:36.298Z,8.47
2022-12-18T22:00:06.060Z,8.70
2022-12-18T22:02:33.575Z,8.55
2022-12-18T22:05:01.185Z,9.68
2022-12-18T22:07:29.628Z,8.23
2022-12-18T22:09:57.092Z,5.50
2022-12-18T22:12:41.693Z,7.55
2022-12-18T22:15:18.634Z,9.52
2022-12-18T22:17:49.853Z,6.63
2022-12-18T22:20:17.581Z,6.53
2022-12-18T22:22:47.911Z,7.97
2022-12-18T22:25:15.587Z,10.27
2022-12-18T22:27:43.469Z,9.75
2022-12-18T22:30:14.563Z,9.95
2022-12-18T22:32:42.045Z,8.10
2022-12-18T22:35:15.558Z,11.10
2022-12-18T22:37:43.565Z,7.50
2022-12-18T22:40:23.928Z,8.18
2022-12-18T22:42:52.913Z,7.22
2022-12-18T22:45:21.692Z,8.07
2022-12-18T22:47:49.210Z,9.83
2022-12-18T22:50:16.671Z,10.05
2022-12-18T22:52:44.145Z,9.02
2022-12-18T22:55:11.618Z,8.07
2022-12-18T22:57:40.285Z,10.57
2022-12-18T23:00:12.956Z,11.43
2022-12-18T23:02:41.887Z,7.68
2022-12-18T23:05:09.699Z,10.07
2022-12-18T23:07:37.141Z,11.43
2022-12-18T23:10:05.187Z,8.95
2022-12-18T23:12:32.721Z,12.07
2022-12-18T23:15:02.151Z,9.57
2022-12-18T23:17:29.644Z,10.98
2022-12-18T23:19:58.490Z,10.48
2022-12-18T23:22:25.924Z,9.00
2022-12-18T23:24:53.351Z,11.10
2022-12-18T23:27:20.862Z,12.68
2022-12-18T23:29:48.277Z,10.02
2022-12-18T23:32:16.796Z,10.25
2022-12-18T23:34:44.257Z,11.57
2022-12-18T23:37:13.030Z,10.50
2022-12-18T23:39:40.475Z,10.57
2022-12-18T23:42:07.915Z,11.25
2022-12-18T23:44:35.525Z,10.05
2022-12-18T23:47:04.339Z,11.27
2022-12-18T23:49:31.930Z,10.30
2022-12-18T23:51:59.539Z,11.93
2022-12-18T23:54:33.204Z,11.00
2022-12-18T23:57:01.310Z,11.35
2022-12-18T23:59:28.827Z,10.93
